Sheridan, WY

5:27 PM MST on December 28, 2014 (GMT -0700)
South Big Horn County | Change Station
CLOSE
Current Station
Airport
Location: Greybull,
Elevation: 3934 ft
Nearby Weather Stations
Active Advisory: Winter Weather Advisory

Elev 3934 ft 44.52 °N, 108.08 °W | Updated 34 minutes ago

Snow
Snow
13 °F
Feels Like 7 °F
N
4
Wind Variable Wind from NW

Today
High -- | Low -- °F
--% Chance of Precip.
Yesterday
High -- | Low -- °F
Precip. -- in
7:44 AM 4:34 PM
First Quarter, 53% visible
Pressure 30.20 in
Visibility 7.0 miles
Clouds Mostly Cloudy 2500 ft
Windchill 7 °F
Dew Point 11 °F
Humidity 92%
Rainfall 0.00 in
Snow Depth Not available.
UV 0 out of 12
Pollen .10 out of 12
Air Quality Not available.
Flu Activity Not available.
METAR KGEY 282353Z AUTO 32003KT 7SM BKN025 M11/M12 A2998 RMK AO2 SNE03B20E33 SLP227 P0000 60000 T11061117 11100 21122 53016

More Conditions Fewer Conditions

Pressure 30.20 in
Visibility 7.0 miles
Clouds Mostly Cloudy 2500 ft
Windchill 7 °F
Dew Point 11 °F
Humidity 92%
Rainfall 0.00 in
Snow Depth Not available.
UV 0 out of 12
Pollen .10 out of 12
Air Quality Not available.
Flu Activity Not available.
METAR KGEY 282353Z AUTO 32003KT 7SM BKN025 M11/M12 A2998 RMK AO2 SNE03B20E33 SLP227 P0000 60000 T11061117 11100 21122 53016

More Conditions Fewer Conditions

10-Day Weather Forecast

Almanac

Astronomy

Dec. 28, 2014 Rise Set
Actual Time
Civil Twilight
Nautical Twilight
Astronomical Twilight
Moon
Length of Visible Light
Length of Day
Tomorrow will be .
, % of the Moon is Illuminated

Today's Extremes

State Highs State Lows

Community

WunderPhotos

Upload Photos

1,781,468 photos uploaded!

WunderBlogs® & News

Nearby

Air Quality

  Air Quality AQ Index Pollutant
Not available.

Snow Depth

Station Depth Elevation

Earthquake Activity

City Distance Mag. Time & Date
Minimum magnitude displayed is 2.5.

Coastal Water Temperatures

Place Temperature

Nearby Weather Stations